Time;durP1;ratioP1;P1;durP2;ratioP2;P2;SDS_P1;SDS_P2;PMS_P1;PMS_P2;Temp;Humidity;BMP_temperature;BMP_pressure;BME280_temperature;BME280_humidity;BME280_pressure;Samples;Min_cycle;Max_cycle;Signal;HPM_P1;HPM_P2
2024/04/16 00:02:16;;;;;;;0.47;0.47;;;7.20;99.90;;;;;;4438140;32;20077;-61
2024/04/16 00:04:42;;;;;;;9.65;1.42;;;7.20;99.90;;;;;;4439100;32;20053;-62
2024/04/16 00:07:07;;;;;;;0.28;0.28;;;7.30;99.90;;;;;;4438144;32;20289;-63
2024/04/16 00:09:33;;;;;;;0.30;0.30;;;7.30;99.90;;;;;;4436435;32;20121;-62
2024/04/16 00:12:00;;;;;;;0.30;0.30;;;7.40;99.90;;;;;;4436307;32;20077;-62
2024/04/16 00:14:25;;;;;;;0.95;0.93;;;7.40;99.90;;;;;;4437911;32;20492;-62
2024/04/16 00:16:51;;;;;;;0.60;0.60;;;7.40;99.90;;;;;;4438819;32;20065;-61
2024/04/16 00:19:16;;;;;;;0.45;0.45;;;7.40;99.90;;;;;;4438470;32;20126;-63
2024/04/16 00:21:42;;;;;;;0.30;0.30;;;7.50;99.90;;;;;;4440176;32;20061;-62
2024/04/16 00:24:07;;;;;;;0.30;0.30;;;7.50;99.90;;;;;;4440479;32;20092;-61
2024/04/16 00:26:33;;;;;;;0.40;0.40;;;7.40;99.90;;;;;;4441627;32;20080;-63
2024/04/16 00:28:59;;;;;;;0.30;0.30;;;7.50;99.90;;;;;;4440386;32;20060;-62
2024/04/16 00:31:24;;;;;;;0.30;0.30;;;7.40;99.90;;;;;;4439804;32;20120;-62
2024/04/16 00:33:50;;;;;;;0.30;0.30;;;7.50;99.90;;;;;;4439492;32;20081;-62
2024/04/16 00:36:15;;;;;;;2.40;1.70;;;7.40;99.90;;;;;;4441438;32;20116;-62
2024/04/16 00:38:41;;;;;;;0.43;0.43;;;7.50;99.90;;;;;;4440984;32;20207;-61
2024/04/16 00:41:06;;;;;;;0.40;0.40;;;7.50;99.90;;;;;;4439927;32;20081;-61
2024/04/16 00:43:32;;;;;;;0.20;0.20;;;7.40;99.90;;;;;;4438438;32;20058;-61
2024/04/16 00:45:59;;;;;;;0.30;0.30;;;7.40;99.90;;;;;;4438306;32;20553;-61
2024/04/16 00:48:27;;;;;;;0.40;0.40;;;7.40;99.90;;;;;;4414147;32;20080;-62
2024/04/16 00:50:55;;;;;;;0.30;0.30;;;7.40;99.90;;;;;;4430353;32;20061;-63
2024/04/16 00:53:22;;;;;;;0.40;0.40;;;7.50;99.90;;;;;;4427046;32;20486;-61
2024/04/16 00:55:49;;;;;;;0.30;0.30;;;7.50;99.90;;;;;;4428589;32;20082;-62
2024/04/16 00:58:18;;;;;;;0.50;0.50;;;7.50;99.90;;;;;;4440190;32;20076;-62
2024/04/16 01:00:44;;;;;;;0.45;0.45;;;7.50;99.90;;;;;;4430519;32;20077;-61
2024/04/16 01:03:10;;;;;;;0.50;0.50;;;7.50;99.90;;;;;;4431226;32;20139;-63
2024/04/16 01:05:36;;;;;;;0.20;0.20;;;7.50;99.90;;;;;;4429328;32;20120;-62
2024/04/16 01:08:02;;;;;;;2.08;0.82;;;7.50;99.90;;;;;;4426644;32;20077;-61
2024/04/16 01:10:30;;;;;;;0.30;0.30;;;7.50;99.90;;;;;;4437053;32;20457;-61
2024/04/16 01:12:55;;;;;;;5.35;1.20;;;7.40;99.90;;;;;;4429742;32;20077;-62
2024/04/16 01:15:21;;;;;;;0.43;0.43;;;7.40;99.90;;;;;;4438238;32;20060;-61
2024/04/16 01:17:48;;;;;;;0.45;0.45;;;7.30;99.90;;;;;;4438867;32;20072;-60
2024/04/16 01:20:14;;;;;;;0.52;0.52;;;7.30;99.90;;;;;;4429171;32;20069;-61
2024/04/16 01:22:45;;;;;;;0.32;0.32;;;7.20;99.90;;;;;;4435924;32;20792;-62
2024/04/16 01:25:11;;;;;;;0.40;0.40;;;7.20;99.90;;;;;;4439732;32;20479;-62
2024/04/16 01:27:37;;;;;;;0.50;0.50;;;7.20;99.90;;;;;;4439447;32;20073;-62
2024/04/16 01:30:03;;;;;;;0.30;0.30;;;7.30;99.90;;;;;;4438938;32;20070;-62
2024/04/16 01:32:29;;;;;;;2.85;0.65;;;7.20;99.90;;;;;;4428379;32;20080;-62
2024/04/16 01:34:54;;;;;;;0.37;0.37;;;7.20;99.90;;;;;;4429388;32;20112;-63
2024/04/16 01:37:20;;;;;;;0.35;0.35;;;7.10;99.90;;;;;;4439320;32;20088;-63
2024/04/16 01:39:45;;;;;;;0.25;0.25;;;7.20;99.90;;;;;;4438640;32;20064;-61
2024/04/16 01:42:11;;;;;;;0.30;0.30;;;7.20;99.90;;;;;;4437300;32;20081;-62
2024/04/16 01:44:36;;;;;;;1.27;0.40;;;7.30;99.90;;;;;;4438640;32;20104;-62
2024/04/16 01:47:02;;;;;;;0.28;0.28;;;7.30;99.90;;;;;;4439059;32;20068;-63
2024/04/16 01:49:28;;;;;;;0.88;0.55;;;7.30;99.90;;;;;;4437729;32;20069;-62
2024/04/16 01:51:53;;;;;;;0.30;0.30;;;7.30;99.90;;;;;;4438753;32;20061;-62
2024/04/16 01:54:19;;;;;;;2.40;1.02;;;7.30;99.90;;;;;;4432039;32;20155;-62
2024/04/16 01:56:50;;;;;;;0.30;0.30;;;7.20;99.90;;;;;;4429140;32;20061;-62
2024/04/16 01:59:16;;;;;;;0.30;0.30;;;7.20;99.90;;;;;;4429485;32;20474;-63
2024/04/16 02:01:42;;;;;;;0.60;0.60;;;7.20;99.90;;;;;;4430863;32;20785;-62
2024/04/16 02:04:08;;;;;;;1.12;0.62;;;7.30;99.90;;;;;;4430740;32;20120;-64
2024/04/16 02:06:34;;;;;;;0.30;0.30;;;7.30;99.90;;;;;;4435077;32;20068;-63
2024/04/16 02:08:59;;;;;;;41.42;0.90;;;7.30;99.90;;;;;;4435171;32;20082;-63
2024/04/16 02:11:25;;;;;;;0.40;0.40;;;7.20;99.90;;;;;;4433489;32;20112;-62
2024/04/16 02:13:53;;;;;;;0.35;0.35;;;7.10;99.90;;;;;;4432140;32;20112;-62
2024/04/16 02:16:18;;;;;;;2.05;0.65;;;7.20;99.90;;;;;;4412417;32;20127;-62
2024/04/16 02:18:44;;;;;;;0.40;0.40;;;7.20;99.90;;;;;;4429106;32;20115;-62
2024/04/16 02:21:10;;;;;;;0.40;0.40;;;7.20;99.90;;;;;;4429002;32;20077;-62
2024/04/16 02:23:35;;;;;;;0.30;0.30;;;7.10;99.90;;;;;;4432978;32;20074;-62
2024/04/16 02:26:01;;;;;;;0.85;0.68;;;7.20;99.90;;;;;;4432179;32;20131;-62
2024/04/16 02:28:27;;;;;;;0.40;0.40;;;7.20;99.90;;;;;;4432858;32;20274;-62
2024/04/16 02:30:52;;;;;;;0.30;0.30;;;7.20;99.90;;;;;;4432273;32;20066;-62
2024/04/16 02:33:20;;;;;;;0.25;0.25;;;7.20;99.90;;;;;;4432246;32;20826;-62
2024/04/16 02:35:46;;;;;;;0.30;0.30;;;7.10;99.90;;;;;;4433776;32;20085;-63
2024/04/16 02:38:13;;;;;;;0.30;0.30;;;7.10;99.90;;;;;;4430734;32;20426;-61
2024/04/16 02:40:39;;;;;;;0.30;0.30;;;7.10;99.90;;;;;;4431190;32;20074;-62
2024/04/16 02:43:04;;;;;;;0.40;0.40;;;7.10;99.90;;;;;;4434134;32;21248;-62
2024/04/16 02:45:30;;;;;;;0.30;0.30;;;7.00;99.90;;;;;;4429415;32;20072;-62
2024/04/16 02:47:56;;;;;;;0.30;0.30;;;6.90;99.90;;;;;;4420109;32;20561;-62
2024/04/16 02:50:22;;;;;;;4.18;0.95;;;6.80;99.90;;;;;;4433824;32;20065;-62
2024/04/16 02:52:48;;;;;;;0.30;0.30;;;6.70;99.90;;;;;;4430135;32;20069;-61
2024/04/16 02:55:17;;;;;;;0.20;0.20;;;6.70;99.90;;;;;;4438567;32;20081;-61
2024/04/16 02:57:43;;;;;;;4.68;0.82;;;6.70;99.90;;;;;;4431320;32;20480;-62
2024/04/16 03:02:34;;;;;;;0.50;0.50;;;6.70;99.90;;;;;;4440788;32;20061;-62
2024/04/16 03:05:00;;;;;;;0.20;0.20;;;6.70;99.90;;;;;;4440187;32;20180;-62
2024/04/16 03:07:26;;;;;;;0.30;0.30;;;6.60;99.90;;;;;;4439098;32;20085;-62
2024/04/16 03:09:51;;;;;;;0.50;0.50;;;6.70;99.90;;;;;;4440286;32;20065;-63
2024/04/16 03:12:17;;;;;;;0.30;0.30;;;6.60;99.90;;;;;;4439993;32;20124;-60
2024/04/16 03:14:42;;;;;;;0.30;0.30;;;6.70;99.90;;;;;;4438512;32;20076;-61
2024/04/16 03:17:08;;;;;;;0.40;0.40;;;6.70;99.90;;;;;;4439250;32;20082;-60
2024/04/16 03:19:33;;;;;;;0.30;0.30;;;6.70;99.90;;;;;;4438019;32;20516;-61
2024/04/16 03:21:59;;;;;;;2.35;1.10;;;6.60;99.90;;;;;;4437572;32;20093;-60
2024/04/16 03:24:25;;;;;;;0.30;0.30;;;6.50;99.90;;;;;;4438743;32;20068;-63
2024/04/16 03:26:50;;;;;;;0.30;0.30;;;6.50;99.90;;;;;;4440320;32;20069;-62
2024/04/16 03:29:16;;;;;;;0.30;0.30;;;6.70;99.90;;;;;;4440875;32;20556;-59
2024/04/16 03:31:41;;;;;;;0.30;0.30;;;6.50;99.90;;;;;;4441188;32;20128;-59
2024/04/16 03:34:07;;;;;;;0.30;0.30;;;6.50;99.90;;;;;;4416881;32;20065;-61
2024/04/16 03:36:33;;;;;;;0.20;0.20;;;6.50;99.90;;;;;;4435839;32;20134;-61
2024/04/16 03:38:58;;;;;;;0.37;0.37;;;6.50;99.90;;;;;;4438843;32;20116;-61
2024/04/16 03:41:24;;;;;;;0.35;0.35;;;6.40;99.90;;;;;;4440350;32;20069;-61
2024/04/16 03:43:50;;;;;;;0.20;0.20;;;6.40;99.90;;;;;;4439760;32;20068;-62
2024/04/16 03:46:16;;;;;;;0.30;0.30;;;6.40;99.90;;;;;;4439870;32;20065;-60
2024/04/16 03:48:42;;;;;;;0.28;0.28;;;6.40;99.90;;;;;;4432489;32;20103;-62
2024/04/16 03:51:08;;;;;;;2.40;1.30;;;6.50;99.90;;;;;;4440713;32;20065;-62
2024/04/16 03:53:34;;;;;;;0.25;0.25;;;6.50;99.90;;;;;;4441603;32;21126;-62
2024/04/16 03:56:00;;;;;;;0.30;0.30;;;6.60;99.90;;;;;;4438684;32;20105;-62
2024/04/16 03:58:27;;;;;;;0.55;0.45;;;6.60;99.90;;;;;;4441954;32;20396;-61
2024/04/16 04:01:00;;;;;;;0.52;0.50;;;6.60;99.90;;;;;;4439306;32;20407;-63
2024/04/16 04:03:26;;;;;;;1.10;0.50;;;6.50;99.90;;;;;;4440273;32;20560;-62
2024/04/16 04:05:54;;;;;;;0.50;0.50;;;6.50;99.90;;;;;;4440333;32;20073;-62
2024/04/16 04:08:20;;;;;;;0.30;0.30;;;6.60;99.90;;;;;;4440471;32;20081;-61
2024/04/16 04:10:46;;;;;;;2.30;1.20;;;6.50;99.90;;;;;;4440187;32;20555;-62
2024/04/16 04:13:12;;;;;;;0.30;0.30;;;6.50;99.90;;;;;;4439837;32;20453;-62
2024/04/16 04:15:37;;;;;;;8.02;1.73;;;6.40;99.90;;;;;;4440235;32;20065;-61
2024/04/16 04:18:04;;;;;;;0.20;0.20;;;6.50;99.90;;;;;;4441048;32;20533;-63
2024/04/16 04:20:30;;;;;;;6.25;1.48;;;6.40;99.90;;;;;;4439908;32;20090;-62
2024/04/16 04:22:55;;;;;;;0.30;0.30;;;6.60;99.90;;;;;;4433163;32;20073;-60
2024/04/16 04:25:21;;;;;;;0.20;0.20;;;6.60;99.90;;;;;;4437426;32;20072;-60
2024/04/16 04:27:46;;;;;;;0.30;0.30;;;6.70;99.90;;;;;;4439635;32;20482;-60
2024/04/16 04:30:13;;;;;;;0.28;0.28;;;6.70;99.90;;;;;;4439308;32;20061;-59
2024/04/16 04:32:39;;;;;;;0.30;0.30;;;6.70;99.90;;;;;;4440184;32;20135;-60
2024/04/16 04:35:06;;;;;;;0.20;0.20;;;6.70;99.90;;;;;;4418550;32;20065;-60
2024/04/16 04:37:32;;;;;;;0.20;0.20;;;6.70;99.90;;;;;;4433557;32;20073;-59
2024/04/16 04:39:58;;;;;;;0.75;0.68;;;6.70;99.90;;;;;;4437729;32;20053;-61
2024/04/16 04:42:25;;;;;;;0.37;0.37;;;6.70;99.90;;;;;;4438619;32;20175;-60
2024/04/16 04:44:52;;;;;;;0.30;0.30;;;6.80;99.90;;;;;;4439940;32;20069;-62
2024/04/16 04:47:19;;;;;;;1.45;0.60;;;6.80;99.90;;;;;;4429028;32;20073;-60
2024/04/16 04:49:45;;;;;;;0.50;0.50;;;6.90;99.90;;;;;;4439470;32;20210;-60
2024/04/16 04:52:10;;;;;;;8.40;0.62;;;7.00;99.90;;;;;;4438528;32;20080;-61
2024/04/16 04:54:36;;;;;;;0.30;0.30;;;7.00;99.90;;;;;;4432343;32;20142;-62
2024/04/16 04:57:02;;;;;;;0.30;0.30;;;7.10;99.90;;;;;;4427731;32;20077;-61
2024/04/16 04:59:28;;;;;;;2.35;1.15;;;7.10;99.90;;;;;;4421301;32;20089;-60
2024/04/16 05:01:55;;;;;;;0.30;0.30;;;7.10;99.90;;;;;;4426052;32;20069;-61
2024/04/16 05:04:20;;;;;;;0.30;0.30;;;6.90;99.90;;;;;;4433686;32;20057;-60
2024/04/16 05:06:46;;;;;;;0.50;0.50;;;6.70;99.90;;;;;;4413632;32;20134;-61
2024/04/16 05:09:12;;;;;;;0.47;0.47;;;6.50;99.90;;;;;;4424106;32;20073;-61
2024/04/16 05:11:38;;;;;;;0.30;0.30;;;6.40;99.90;;;;;;4420760;32;20080;-61
2024/04/16 05:14:09;;;;;;;0.20;0.20;;;6.40;99.90;;;;;;4408915;32;20581;-61
2024/04/16 05:16:35;;;;;;;;;;;6.30;99.90;;;;;;4420124;32;20160;-60
2024/04/16 05:19:02;;;;;;;0.20;0.20;;;6.30;99.90;;;;;;4422569;32;19953;-60
2024/04/16 05:21:27;;;;;;;0.40;0.40;;;6.40;99.90;;;;;;4407908;32;21817;-62
2024/04/16 05:23:53;;;;;;;0.40;0.40;;;6.40;99.90;;;;;;4422535;32;20069;-60
2024/04/16 05:26:21;;;;;;;0.30;0.30;;;6.50;99.90;;;;;;4411851;32;20413;-63
2024/04/16 05:28:47;;;;;;;0.30;0.30;;;6.50;99.90;;;;;;4415169;32;20613;-63
2024/04/16 05:31:13;;;;;;;0.30;0.30;;;6.40;99.90;;;;;;4421948;32;20053;-64
2024/04/16 05:33:39;;;;;;;0.20;0.20;;;6.50;99.90;;;;;;4422551;32;20147;-64
2024/04/16 05:36:05;;;;;;;19.95;0.75;;;6.50;99.90;;;;;;4418920;32;20143;-61
2024/04/16 05:38:30;;;;;;;0.22;0.22;;;6.60;99.90;;;;;;4416624;32;20093;-64
2024/04/16 05:40:56;;;;;;;0.40;0.40;;;6.70;99.90;;;;;;4414976;32;20639;-64
2024/04/16 05:43:21;;;;;;;0.20;0.20;;;6.80;99.90;;;;;;4412057;32;20096;-63
2024/04/16 05:45:47;;;;;;;0.22;0.22;;;6.90;99.90;;;;;;4416513;32;20094;-65
2024/04/16 05:48:13;;;;;;;0.30;0.30;;;6.90;99.90;;;;;;4408618;32;20264;-65
2024/04/16 05:50:39;;;;;;;0.40;0.40;;;6.90;99.90;;;;;;4408372;32;20105;-64
2024/04/16 05:53:04;;;;;;;0.50;0.50;;;6.90;99.90;;;;;;4410964;32;20065;-64
2024/04/16 05:55:30;;;;;;;0.30;0.30;;;6.70;99.90;;;;;;4390673;32;20095;-65
2024/04/16 05:57:55;;;;;;;0.30;0.30;;;6.60;99.90;;;;;;4409813;32;20074;-64
2024/04/16 06:00:22;;;;;;;0.25;0.25;;;6.60;99.90;;;;;;4407377;32;21457;-65
2024/04/16 06:02:48;;;;;;;0.30;0.30;;;6.60;99.90;;;;;;4389945;32;20073;-64
2024/04/16 06:05:13;;;;;;;0.50;0.50;;;6.70;99.90;;;;;;4421267;32;20437;-64
2024/04/16 06:07:39;;;;;;;0.43;0.43;;;6.70;99.90;;;;;;4414183;32;20128;-64
2024/04/16 06:10:06;;;;;;;0.30;0.30;;;6.70;99.90;;;;;;4419253;32;20101;-62
2024/04/16 06:12:32;;;;;;;0.52;0.52;;;6.70;99.90;;;;;;4417231;32;20073;-62
2024/04/16 06:14:59;;;;;;;0.40;0.40;;;6.70;99.90;;;;;;4398684;32;20782;-61
2024/04/16 06:17:24;;;;;;;0.30;0.30;;;6.80;99.90;;;;;;4400187;32;20764;-62
2024/04/16 06:19:50;;;;;;;0.32;0.32;;;6.70;99.90;;;;;;4420014;32;20963;-62
2024/04/16 06:22:16;;;;;;;0.40;0.40;;;6.70;99.90;;;;;;4419788;32;20056;-61
2024/04/16 06:24:42;;;;;;;0.30;0.30;;;6.80;99.90;;;;;;4407277;32;20077;-61
2024/04/16 06:27:08;;;;;;;0.45;0.45;;;6.80;99.90;;;;;;4399635;32;20373;-64
2024/04/16 06:29:37;;;;;;;5.82;1.25;;;6.70;99.90;;;;;;4391205;32;20513;-63
2024/04/16 06:32:04;;;;;;;0.28;0.28;;;6.70;99.90;;;;;;4414528;32;20614;-62
2024/04/16 06:34:30;;;;;;;4.60;1.12;;;6.80;99.90;;;;;;4399648;32;20077;-64
2024/04/16 06:36:55;;;;;;;0.30;0.30;;;6.70;99.90;;;;;;4393932;32;21473;-64
2024/04/16 06:39:21;;;;;;;0.30;0.30;;;6.70;99.90;;;;;;4410492;32;20097;-63
2024/04/16 06:41:47;;;;;;;0.52;0.52;;;6.70;99.90;;;;;;4415302;32;20432;-63
2024/04/16 06:44:12;;;;;;;0.45;0.43;;;6.70;99.90;;;;;;4423986;32;20437;-63
2024/04/16 06:46:40;;;;;;;0.32;0.32;;;6.90;99.90;;;;;;4418388;32;20563;-63
2024/04/16 06:49:05;;;;;;;0.50;0.50;;;6.90;99.90;;;;;;4418564;32;20626;-63
2024/04/16 06:51:31;;;;;;;0.47;0.47;;;6.90;99.90;;;;;;4416798;32;20108;-64
2024/04/16 06:53:57;;;;;;;0.32;0.32;;;6.90;99.90;;;;;;4416315;32;20086;-63
2024/04/16 06:56:23;;;;;;;0.93;0.93;;;6.90;99.90;;;;;;4399925;32;20418;-61
2024/04/16 06:58:48;;;;;;;0.50;0.50;;;6.80;99.90;;;;;;4401027;32;20077;-61
2024/04/16 07:01:14;;;;;;;0.20;0.20;;;6.90;99.90;;;;;;4401416;32;20678;-62
2024/04/16 07:03:39;;;;;;;1.17;0.50;;;6.80;99.90;;;;;;4402597;32;20074;-63
2024/04/16 07:06:05;;;;;;;0.70;0.62;;;6.80;99.90;;;;;;4398369;32;20762;-62
2024/04/16 07:08:31;;;;;;;0.20;0.20;;;7.00;99.90;;;;;;4399169;32;20113;-61
2024/04/16 07:10:57;;;;;;;4.28;2.12;;;7.10;99.90;;;;;;4400175;32;20101;-60
2024/04/16 07:13:23;;;;;;;0.30;0.30;;;7.20;99.90;;;;;;4393830;32;20070;-63
2024/04/16 07:15:51;;;;;;;0.68;0.68;;;7.10;99.90;;;;;;4403011;32;20465;-62
2024/04/16 07:18:16;;;;;;;3.80;1.58;;;7.10;99.90;;;;;;4402493;32;20101;-61
2024/04/16 07:20:50;;;;;;;0.40;0.40;;;7.10;99.90;;;;;;4401589;32;20073;-62
2024/04/16 07:23:16;;;;;;;0.28;0.28;;;7.10;99.90;;;;;;4397968;32;20537;-63
2024/04/16 07:25:44;;;;;;;0.50;0.50;;;7.20;99.90;;;;;;4400296;32;20434;-64
2024/04/16 07:28:11;;;;;;;0.30;0.30;;;7.30;99.90;;;;;;4395124;32;20093;-64
2024/04/16 07:30:37;;;;;;;0.40;0.40;;;7.30;99.90;;;;;;4386622;32;21303;-64
2024/04/16 07:33:03;;;;;;;0.20;0.20;;;7.20;99.90;;;;;;4393898;32;20585;-64
2024/04/16 07:35:29;;;;;;;0.30;0.30;;;7.30;99.90;;;;;;4394217;32;20545;-64
2024/04/16 07:37:55;;;;;;;0.30;0.30;;;7.30;99.90;;;;;;4387437;32;20253;-64
2024/04/16 07:40:21;;;;;;;0.30;0.30;;;7.40;99.90;;;;;;4396986;32;20128;-64
2024/04/16 07:42:46;;;;;;;0.32;0.32;;;7.40;99.90;;;;;;4400189;32;20093;-64
2024/04/16 07:45:12;;;;;;;0.90;0.75;;;7.30;99.90;;;;;;4392842;32;20149;-66
2024/04/16 07:47:38;;;;;;;0.30;0.30;;;7.40;99.90;;;;;;4393175;32;20109;-64
2024/04/16 07:50:04;;;;;;;1.60;0.80;;;7.40;99.90;;;;;;4383089;32;20148;-64
2024/04/16 07:52:31;;;;;;;0.85;0.85;;;7.40;99.90;;;;;;4385432;32;20231;-64
2024/04/16 07:54:56;;;;;;;0.93;0.70;;;7.40;99.90;;;;;;4408544;32;20437;-64
2024/04/16 07:57:22;;;;;;;0.65;0.65;;;7.50;99.90;;;;;;4403885;32;20093;-64
2024/04/16 07:59:48;;;;;;;20.08;0.85;;;7.50;99.90;;;;;;4415605;32;20069;-64
2024/04/16 08:02:13;;;;;;;0.75;0.52;;;7.50;99.90;;;;;;4413592;32;20236;-67
2024/04/16 08:04:39;;;;;;;0.20;0.20;;;7.40;99.90;;;;;;4417985;32;20139;-65
2024/04/16 08:07:05;;;;;;;0.25;0.25;;;7.30;99.90;;;;;;4413751;32;20089;-64
2024/04/16 08:09:30;;;;;;;0.30;0.30;;;7.20;99.90;;;;;;4421134;32;20089;-64
2024/04/16 08:11:56;;;;;;;0.40;0.40;;;7.20;99.90;;;;;;4418326;32;20514;-64
2024/04/16 08:14:22;;;;;;;0.43;0.43;;;7.10;99.90;;;;;;4416808;32;20266;-64
2024/04/16 08:16:47;;;;;;;0.25;0.25;;;7.10;99.90;;;;;;4414463;32;20081;-64
2024/04/16 08:19:13;;;;;;;0.43;0.43;;;7.10;99.90;;;;;;4406899;32;20081;-64
2024/04/16 08:21:38;;;;;;;0.35;0.35;;;7.10;99.90;;;;;;4414118;32;20093;-64
2024/04/16 08:24:05;;;;;;;0.30;0.30;;;7.10;99.90;;;;;;4419648;32;20617;-63
2024/04/16 08:26:31;;;;;;;2.60;1.35;;;7.30;99.90;;;;;;4416562;32;20268;-62
2024/04/16 08:28:56;;;;;;;0.40;0.40;;;7.30;99.90;;;;;;4414475;32;21235;-63
2024/04/16 08:31:22;;;;;;;0.30;0.30;;;7.40;99.90;;;;;;4419915;32;20598;-63
2024/04/16 08:33:47;;;;;;;2.37;1.58;;;7.50;99.90;;;;;;4412494;32;20066;-64
2024/04/16 08:36:13;;;;;;;0.60;0.43;;;7.50;99.90;;;;;;4409180;32;20715;-64
2024/04/16 08:38:38;;;;;;;0.50;0.50;;;7.70;99.90;;;;;;4406956;32;20498;-64
2024/04/16 08:41:04;;;;;;;0.65;0.65;;;7.70;99.90;;;;;;4409396;32;20410;-64
2024/04/16 08:43:33;;;;;;;0.30;0.30;;;7.70;99.90;;;;;;4396214;32;20417;-64
2024/04/16 08:46:01;;;;;;;0.50;0.50;;;7.80;99.90;;;;;;4395148;32;20093;-64
2024/04/16 08:48:29;;;;;;;0.32;0.32;;;7.90;99.90;;;;;;4399421;32;21328;-64
2024/04/16 08:50:57;;;;;;;0.95;0.65;;;8.00;99.90;;;;;;4401019;32;20636;-64
2024/04/16 08:53:24;;;;;;;0.85;0.85;;;8.00;99.90;;;;;;4395594;32;20076;-63
2024/04/16 08:55:50;;;;;;;0.30;0.30;;;8.10;99.90;;;;;;4389955;32;20439;-63
2024/04/16 08:58:16;;;;;;;2.10;0.35;;;8.20;99.90;;;;;;4399337;32;20077;-64
2024/04/16 09:00:43;;;;;;;0.32;0.32;;;8.20;99.90;;;;;;4400253;32;20141;-63
2024/04/16 09:03:09;;;;;;;0.30;0.30;;;8.30;99.90;;;;;;4409514;32;20085;-64
2024/04/16 09:05:35;;;;;;;0.40;0.40;;;8.40;99.90;;;;;;4414367;32;20101;-63
2024/04/16 09:08:00;;;;;;;0.32;0.32;;;8.60;99.90;;;;;;4404581;32;20093;-63
2024/04/16 09:10:26;;;;;;;0.32;0.32;;;8.70;99.90;;;;;;4405067;32;20212;-63
2024/04/16 09:12:53;;;;;;;0.40;0.40;;;8.80;99.90;;;;;;4407934;32;20224;-64
2024/04/16 09:15:20;;;;;;;1.75;0.70;;;8.70;99.90;;;;;;4407236;32;20073;-64
2024/04/16 09:17:47;;;;;;;0.35;0.35;;;8.70;99.90;;;;;;4412746;32;20088;-63
2024/04/16 09:20:15;;;;;;;0.20;0.20;;;8.70;99.90;;;;;;4386638;32;20194;-63
2024/04/16 09:22:41;;;;;;;0.40;0.40;;;8.70;99.90;;;;;;4402441;32;20313;-63
2024/04/16 09:25:07;;;;;;;0.40;0.40;;;8.70;99.90;;;;;;4400037;32;20089;-64
2024/04/16 09:27:32;;;;;;;0.30;0.30;;;8.80;99.90;;;;;;4406675;32;20500;-64
2024/04/16 09:30:09;;;;;;;0.50;0.50;;;9.10;99.90;;;;;;4398259;32;21293;-63
2024/04/16 09:32:36;;;;;;;0.70;0.43;;;9.30;99.90;;;;;;4378429;32;20085;-63
2024/04/16 09:35:02;;;;;;;0.40;0.40;;;9.50;99.90;;;;;;4402117;32;20694;-63
2024/04/16 09:37:28;;;;;;;0.65;0.45;;;9.50;99.90;;;;;;4407362;32;22470;-63
2024/04/16 09:39:54;;;;;;;0.30;0.30;;;9.50;99.90;;;;;;4404652;32;20073;-63
2024/04/16 09:42:22;;;;;;;0.30;0.30;;;9.40;99.90;;;;;;4387695;32;20624;-63
2024/04/16 09:44:49;;;;;;;0.45;0.45;;;9.40;99.90;;;;;;4403808;32;20358;-62
2024/04/16 09:47:17;;;;;;;0.32;0.30;;;9.30;99.90;;;;;;4415169;32;20458;-63
2024/04/16 09:49:43;;;;;;;0.55;0.55;;;9.10;99.90;;;;;;4397372;32;21157;-63
2024/04/16 09:52:13;;;;;;;0.30;0.30;;;9.00;99.90;;;;;;4400438;32;20085;-63
2024/04/16 09:54:44;;;;;;;0.37;0.37;;;8.90;99.90;;;;;;4404908;32;20880;-63
2024/04/16 09:57:11;;;;;;;0.57;0.57;;;9.00;99.90;;;;;;4393924;32;20062;-63
2024/04/16 09:59:38;;;;;;;0.30;0.30;;;9.20;99.90;;;;;;4397564;32;20093;-63
2024/04/16 10:02:05;;;;;;;0.37;0.37;;;9.30;99.90;;;;;;4410046;32;20551;-64
2024/04/16 10:04:33;;;;;;;3.60;1.08;;;9.40;99.90;;;;;;4396108;32;20135;-62
2024/04/16 10:06:58;;;;;;;0.30;0.30;;;9.60;99.90;;;;;;4419596;32;20124;-64
2024/04/16 10:09:24;;;;;;;0.30;0.30;;;9.50;99.90;;;;;;4411470;32;21503;-61
2024/04/16 10:11:50;;;;;;;0.30;0.30;;;9.60;99.90;;;;;;4415180;32;20172;-64
2024/04/16 10:14:18;;;;;;;0.75;0.73;;;9.70;99.90;;;;;;4406649;32;20409;-62
2024/04/16 10:16:46;;;;;;;0.30;0.30;;;9.80;99.90;;;;;;4408545;32;20158;-62
2024/04/16 10:19:15;;;;;;;5.78;0.60;;;9.90;99.90;;;;;;4401999;32;20617;-63
2024/04/16 10:21:42;;;;;;;0.20;0.20;;;9.90;99.90;;;;;;4415409;32;20156;-62
2024/04/16 10:24:10;;;;;;;0.40;0.40;;;10.00;99.90;;;;;;4414714;32;20163;-63
2024/04/16 10:26:41;;;;;;;0.40;0.40;;;10.00;99.90;;;;;;4416323;32;20192;-62
2024/04/16 10:29:27;;;;;;;3.62;1.65;;;9.90;99.90;;;;;;4392017;32;20096;-63
2024/04/16 10:31:54;;;;;;;0.35;0.35;;;9.90;99.90;;;;;;4404995;32;20661;-63
2024/04/16 10:34:22;;;;;;;0.30;0.30;;;9.80;99.90;;;;;;4416407;32;20092;-62
2024/04/16 10:36:49;;;;;;;0.30;0.30;;;9.70;99.90;;;;;;4412149;32;20517;-63
2024/04/16 10:39:16;;;;;;;0.30;0.30;;;9.80;99.90;;;;;;4411327;32;20088;-65
2024/04/16 10:41:59;;;;;;;1.23;0.50;;;10.00;99.90;;;;;;4415992;32;20155;-63
2024/04/16 10:44:25;;;;;;;0.35;0.35;;;10.40;99.90;;;;;;4412799;32;20065;-61
2024/04/16 10:46:53;;;;;;;0.55;0.50;;;10.70;99.90;;;;;;4395903;32;20090;-63
2024/04/16 10:49:22;;;;;;;0.30;0.30;;;10.80;99.90;;;;;;4397240;32;20211;-62
2024/04/16 10:51:50;;;;;;;0.45;0.45;;;10.60;99.90;;;;;;4419011;32;20909;-62
2024/04/16 10:54:16;;;;;;;3.12;2.05;;;10.40;99.90;;;;;;4410213;32;20080;-64
2024/04/16 10:56:42;;;;;;;2.33;0.52;;;10.40;99.90;;;;;;4398231;32;20109;-63
2024/04/16 10:59:09;;;;;;;0.68;0.68;;;10.40;99.90;;;;;;4397086;32;20404;-64
2024/04/16 11:04:11;;;;;;;0.30;0.30;;;10.50;99.90;;;;;;4409624;32;20183;-63
2024/04/16 11:06:37;;;;;;;0.85;0.73;;;10.30;99.90;;;;;;4408694;32;20140;-63
2024/04/16 11:09:03;;;;;;;0.82;0.62;;;10.30;99.90;;;;;;4407798;32;20090;-63
2024/04/16 11:11:30;;;;;;;0.50;0.40;;;10.20;99.90;;;;;;4405757;32;20914;-63
2024/04/16 11:13:56;;;;;;;0.20;0.20;;;10.20;99.90;;;;;;4416804;32;20069;-63
2024/04/16 11:16:22;;;;;;;0.40;0.40;;;10.20;99.90;;;;;;4413631;32;20104;-63
2024/04/16 11:18:49;;;;;;;0.32;0.32;;;10.20;99.90;;;;;;4421988;32;20430;-62
2024/04/16 11:21:14;;;;;;;1.05;0.70;;;10.30;99.90;;;;;;4405176;32;20843;-63
2024/04/16 11:23:41;;;;;;;0.40;0.40;;;10.20;99.90;;;;;;4418500;32;20093;-62
2024/04/16 11:26:08;;;;;;;4.03;0.82;;;10.20;99.90;;;;;;4421528;32;20532;-63
2024/04/16 11:28:38;;;;;;;15.05;0.62;;;10.20;99.90;;;;;;4401048;32;21198;-62
2024/04/16 11:31:04;;;;;;;0.30;0.30;;;10.30;99.90;;;;;;4410851;32;20116;-63
2024/04/16 11:33:30;;;;;;;0.30;0.30;;;10.30;99.90;;;;;;4418529;32;20077;-60
2024/04/16 11:36:00;;;;;;;1.17;0.70;;;10.30;99.90;;;;;;4413852;32;20174;-62
2024/04/16 11:38:26;;;;;;;0.30;0.30;;;10.30;99.90;;;;;;4413141;32;20173;-61
2024/04/16 11:40:52;;;;;;;4.12;0.80;;;10.30;99.90;;;;;;4420818;32;20152;-61
2024/04/16 11:43:17;;;;;;;6.75;0.52;;;10.40;99.90;;;;;;4412794;32;20783;-61
2024/04/16 11:45:44;;;;;;;1.25;0.40;;;10.40;99.90;;;;;;4401842;32;20492;-62
2024/04/16 11:48:12;;;;;;;0.43;0.43;;;10.50;99.90;;;;;;4406198;32;20200;-62
2024/04/16 11:50:37;;;;;;;0.20;0.20;;;10.70;99.90;;;;;;4398599;32;20093;-62
2024/04/16 11:53:03;;;;;;;0.30;0.30;;;10.70;99.90;;;;;;4392342;32;84300;-63
2024/04/16 11:55:29;;;;;;;4.62;0.50;;;10.80;99.90;;;;;;4410580;32;20077;-62
2024/04/16 11:57:54;;;;;;;0.30;0.30;;;10.70;99.90;;;;;;4407108;32;20253;-62
2024/04/16 12:00:20;;;;;;;1.48;0.37;;;10.80;99.90;;;;;;4414502;32;20144;-63
2024/04/16 12:02:45;;;;;;;0.35;0.35;;;10.70;99.90;;;;;;4414594;32;20077;-63
2024/04/16 12:05:11;;;;;;;0.73;0.73;;;10.80;99.90;;;;;;4418378;32;20985;-62
2024/04/16 12:07:37;;;;;;;0.20;0.20;;;10.70;99.90;;;;;;4416373;32;20141;-62
2024/04/16 12:10:03;;;;;;;0.43;0.43;;;10.70;99.90;;;;;;4388738;32;20826;-63
2024/04/16 12:12:28;;;;;;;0.35;0.35;;;10.70;99.90;;;;;;4413748;32;20124;-62
2024/04/16 12:14:54;;;;;;;13.88;0.80;;;10.60;99.90;;;;;;4414387;32;20408;-63
2024/04/16 12:17:20;;;;;;;0.45;0.35;;;10.40;99.90;;;;;;4421151;32;21368;-62
2024/04/16 12:19:46;;;;;;;0.28;0.28;;;10.40;99.90;;;;;;4423380;32;21537;-62
2024/04/16 12:22:12;;;;;;;0.20;0.20;;;10.40;99.90;;;;;;4424422;32;20618;-62
2024/04/16 12:24:37;;;;;;;0.35;0.35;;;10.30;99.90;;;;;;4423514;32;20105;-63
2024/04/16 12:27:03;;;;;;;0.30;0.30;;;10.20;99.90;;;;;;4423480;32;20068;-63
2024/04/16 12:29:29;;;;;;;0.40;0.40;;;10.20;99.90;;;;;;4395834;32;20065;-63
2024/04/16 12:31:54;;;;;;;0.52;0.40;;;10.10;99.90;;;;;;4416178;32;20088;-63
2024/04/16 12:34:20;;;;;;;0.30;0.30;;;10.00;99.90;;;;;;4411479;32;20112;-63
2024/04/16 12:36:45;;;;;;;4.18;0.45;;;9.80;99.90;;;;;;4425043;32;20489;-62
2024/04/16 12:39:12;;;;;;;0.20;0.20;;;9.70;99.90;;;;;;4422858;32;20096;-62
2024/04/16 12:41:39;;;;;;;0.20;0.20;;;9.80;99.90;;;;;;4428902;32;20093;-63
2024/04/16 12:44:04;;;;;;;0.20;0.20;;;9.90;99.90;;;;;;4411456;32;20572;-63
2024/04/16 12:46:30;;;;;;;0.28;0.28;;;10.20;99.90;;;;;;4418680;32;20064;-61
2024/04/16 12:48:57;;;;;;;1.83;0.62;;;10.10;99.90;;;;;;4435154;32;20495;-62
2024/04/16 12:51:22;;;;;;;0.30;0.30;;;10.10;99.90;;;;;;4435236;32;20069;-62
2024/04/16 12:53:48;;;;;;;0.30;0.30;;;10.30;99.90;;;;;;4434032;32;20056;-62
2024/04/16 12:56:13;;;;;;;0.35;0.35;;;10.40;99.90;;;;;;4434582;32;20078;-63